Time;durP1;ratioP1;P1;durP2;ratioP2;P2;SDS_P1;SDS_P2;PMS_P1;PMS_P2;Temp;Humidity;BMP_temperature;BMP_pressure;BME280_temperature;BME280_humidity;BME280_pressure;Samples;Min_cycle;Max_cycle;Signal;HPM_P1;HPM_P2
2022/05/10 00:00:29;;;;;;;;;17.67;17.67;;;;;20.33;97.19;101767.06;4957306;28;47536;-74
2022/05/10 00:02:56;;;;;;;;;21.00;20.00;;;;;20.35;97.03;101763.47;4956071;28;45428;-75
2022/05/10 00:05:32;;;;;;;;;21.33;20.00;;;;;20.34;97.21;101768.84;4956430;28;45396;-76
2022/05/10 00:07:58;;;;;;;;;21.33;19.00;;;;;20.33;97.55;101762.59;4957726;28;45408;-75
2022/05/10 00:10:24;;;;;;;;;19.33;17.00;;;;;20.31;97.67;101759.06;4956010;28;46481;-75
2022/05/10 00:12:50;;;;;;;;;25.00;22.33;;;;;20.29;97.45;101758.19;4957365;28;45374;-75
2022/05/10 00:15:15;;;;;;;;;18.67;18.67;;;;;20.29;97.62;101755.50;4957298;28;45299;-75
2022/05/10 00:17:42;;;;;;;;;20.67;20.33;;;;;20.26;98.13;101752.00;4956972;28;51906;-75
2022/05/10 00:20:10;;;;;;;;;20.00;19.67;;;;;20.26;98.05;101752.88;4955684;28;46410;-76
2022/05/10 00:22:37;;;;;;;;;21.00;21.00;;;;;20.25;98.80;101751.13;4959397;28;45207;-75
2022/05/10 00:25:03;;;;;;;;;20.67;17.67;;;;;20.23;98.22;101749.34;4960735;28;45263;-75
2022/05/10 00:27:28;;;;;;;;;19.00;19.00;;;;;20.18;99.16;101745.84;4959128;28;45588;-75
2022/05/10 00:29:54;;;;;;;;;24.00;17.00;;;;;20.18;99.46;101749.41;4960221;28;46279;-74
2022/05/10 00:32:19;;;;;;;;;23.00;21.33;;;;;20.15;99.49;101744.09;4960409;28;45323;-75
2022/05/10 00:34:45;;;;;;;;;20.33;18.67;;;;;20.11;99.89;101755.78;4958916;28;54321;-75
2022/05/10 00:37:11;;;;;;;;;23.67;21.33;;;;;20.08;100.00;101737.94;4960515;28;45437;-75
2022/05/10 00:39:37;;;;;;;;;22.67;22.67;;;;;20.05;100.00;101742.44;4960422;28;46224;-75
2022/05/10 00:42:07;;;;;;;;;20.67;20.67;;;;;20.00;100.00;101733.59;4960730;28;45208;-75
2022/05/10 00:45:06;;;;;;;;;24.67;21.33;;;;;19.98;100.00;101740.78;4961009;28;45509;-75
2022/05/10 00:47:38;;;;;;;;;22.33;21.00;;;;;19.96;100.00;101731.84;4959811;28;45480;-76
2022/05/10 00:50:24;;;;;;;;;23.00;22.00;;;;;19.94;100.00;101733.66;4959492;28;47442;-75
2022/05/10 00:53:04;;;;;;;;;21.67;21.67;;;;;19.90;100.00;101724.78;4959335;28;45355;-75
2022/05/10 00:56:09;;;;;;;;;19.67;19.33;;;;;19.84;100.00;101720.38;4961602;28;45192;-75
2022/05/10 00:58:42;;;;;;;;;24.00;21.67;;;;;19.84;100.00;101731.09;4959324;28;45590;-75
2022/05/10 01:01:08;;;;;;;;;24.25;24.00;;;;;19.77;100.00;101721.38;4959852;28;45628;-75
2022/05/10 01:03:38;;;;;;;;;23.33;19.00;;;;;19.77;100.00;101725.84;4958522;28;45501;-76
2022/05/10 01:06:22;;;;;;;;;24.67;23.33;;;;;19.75;100.00;101720.50;4958722;28;45388;-75
2022/05/10 01:09:01;;;;;;;;;22.67;21.00;;;;;19.73;100.00;101726.78;4960216;28;45404;-76
2022/05/10 01:11:49;;;;;;;;;23.67;21.67;;;;;19.68;100.00;101717.91;4958969;28;48730;-75
2022/05/10 01:14:21;;;;;;;;;22.00;20.33;;;;;19.66;100.00;101715.28;4959285;28;45282;-75
2022/05/10 01:16:46;;;;;;;;;22.33;18.67;;;;;19.61;100.00;101707.28;4959835;28;45349;-75
2022/05/10 01:19:13;;;;;;;;;23.33;22.67;;;;;19.62;100.00;101708.16;4958740;28;45368;-74
2022/05/10 01:22:06;;;;;;;;;23.33;21.33;;;;;19.60;100.00;101707.28;4959478;28;45293;-74
2022/05/10 01:24:52;;;;;;;;;27.00;23.33;;;;;19.57;100.00;101712.66;4959457;28;46548;-75
2022/05/10 01:27:18;;;;;;;;;24.33;22.33;;;;;19.55;100.00;101714.50;4959791;28;45210;-75
2022/05/10 01:29:47;;;;;;;;;26.67;23.33;;;;;19.48;100.00;101704.72;4959687;28;45358;-75
2022/05/10 01:35:05;;;;;;;;;25.00;22.67;;;;;19.43;100.00;101693.19;4959637;28;45348;-76
2022/05/10 01:37:32;;;;;;;;;26.50;23.75;;;;;19.42;100.00;101688.72;4958168;28;45415;-76
2022/05/10 01:40:29;;;;;;;;;21.00;20.33;;;;;19.42;100.00;101699.44;4958334;28;45576;-75
2022/05/10 01:43:17;;;;;;;;;27.33;21.67;;;;;19.38;100.00;101691.44;4959324;28;46780;-75
2022/05/10 01:45:52;;;;;;;;;23.75;22.75;;;;;19.39;100.00;101689.66;4957889;28;45304;-75
2022/05/10 01:48:21;;;;;;;;;27.00;22.25;;;;;19.36;100.00;101687.91;4959381;28;45288;-75
2022/05/10 01:50:56;;;;;;;;;25.25;23.50;;;;;19.36;100.00;101690.56;4960117;28;45455;-74
2022/05/10 01:53:29;;;;;;;;;27.00;22.75;;;;;19.31;100.00;101679.03;4957621;28;46478;-75
2022/05/10 01:56:04;;;;;;;;;25.50;24.50;;;;;19.30;100.00;101679.06;4957631;28;45400;-75
2022/05/10 01:58:32;;;;;;;;;24.00;22.00;;;;;19.30;100.00;101671.91;4959067;28;45350;-75
2022/05/10 02:01:04;;;;;;;;;24.00;22.00;;;;;19.34;100.00;101680.81;4959428;28;45374;-74
2022/05/10 02:03:34;;;;;;;;;23.67;21.67;;;;;19.34;100.00;101680.81;4959199;28;46617;-75
2022/05/10 02:05:59;;;;;;;;;26.50;25.00;;;;;19.35;100.00;101679.88;4959568;28;45280;-75
2022/05/10 02:08:44;;;;;;;;;24.00;23.50;;;;;19.34;100.00;101673.66;4959182;28;45331;-75
2022/05/10 02:11:12;;;;;;;;;26.00;23.00;;;;;19.35;100.00;101674.53;4959117;28;45492;-75
2022/05/10 02:13:41;;;;;;;;;31.25;26.25;;;;;19.37;100.00;101672.72;4957564;28;45722;-75
2022/05/10 02:16:20;;;;;;;;;26.25;24.00;;;;;19.35;100.00;101666.50;4958209;28;45374;-75
2022/05/10 02:18:52;;;;;;;;;25.25;23.25;;;;;19.37;100.00;101668.25;4957736;28;45413;-75
2022/05/10 02:21:25;;;;;;;;;23.25;22.75;;;;;19.35;100.00;101662.03;4958118;28;45324;-75
2022/05/10 02:24:13;;;;;;;;;27.50;21.25;;;;;19.41;100.00;101663.75;4957411;28;46482;-75
2022/05/10 02:26:43;;;;;;;;;24.75;23.00;;;;;19.38;100.00;101661.09;4957713;28;45352;-75
2022/05/10 02:29:28;;;;;;;;;26.25;24.00;;;;;19.41;100.00;101661.06;4958772;28;45226;-76
2022/05/10 02:35:14;;;;;;;;;31.00;25.50;;;;;19.43;100.00;101653.88;4956281;28;45295;-75
2022/05/10 02:37:40;;;;;;;;;28.00;26.00;;;;;19.47;100.00;101660.97;4958718;28;45359;-75
2022/05/10 02:40:06;;;;;;;;;23.25;22.00;;;;;19.47;100.00;101658.31;4958593;28;45278;-75
2022/05/10 02:42:32;;;;;;;;;24.67;22.00;;;;;19.48;100.00;101660.06;4958665;28;45208;-75
2022/05/10 02:44:58;;;;;;;;;27.00;26.00;;;;;19.50;100.00;101660.06;4957390;28;56548;-74
2022/05/10 02:47:42;;;;;;;;;30.50;28.75;;;;;19.42;100.00;101637.84;4958227;28;60597;-75
2022/05/10 02:50:23;;;;;;;;;26.00;23.50;;;;;19.53;100.00;101650.19;4958350;28;45214;-75
2022/05/10 02:52:48;;;;;;;;;27.75;25.00;;;;;19.54;100.00;101651.94;4958476;28;45368;-74
2022/05/10 02:55:19;;;;;;;;;23.00;22.00;;;;;19.55;100.00;101647.50;4958258;28;45309;-75
2022/05/10 02:57:47;;;;;;;;;24.75;22.75;;;;;19.53;100.00;101646.63;4957671;28;45227;-76
2022/05/10 03:00:13;;;;;;;;;28.75;25.75;;;;;19.44;100.00;101620.88;4958152;28;45322;-76
2022/05/10 03:02:41;;;;;;;;;27.00;23.50;;;;;19.57;100.00;101646.56;4957109;28;45385;-76
2022/05/10 03:05:08;;;;;;;;;27.00;24.25;;;;;19.57;100.00;101649.25;4956731;28;46697;-74
2022/05/10 03:07:33;;;;;;;;;26.75;24.75;;;;;19.58;100.00;101639.41;4958024;28;45259;-75
2022/05/10 03:09:59;;;;;;;;;30.25;27.50;;;;;19.55;100.00;101632.31;4958288;28;45333;-76
2022/05/10 03:12:24;;;;;;;;;24.33;23.33;;;;;19.55;100.00;101626.97;4958078;28;52225;-74
2022/05/10 03:14:50;;;;;;;;;30.00;26.75;;;;;19.55;100.00;101623.41;4957976;28;45889;-75
2022/05/10 03:17:15;;;;;;;;;26.25;24.50;;;;;19.59;100.00;101639.41;4958701;28;45262;-74
2022/05/10 03:19:41;;;;;;;;;30.00;26.00;;;;;19.56;100.00;101622.50;4956298;28;56221;-75
2022/05/10 03:22:09;;;;;;;;;25.75;24.75;;;;;19.55;100.00;101626.97;4958211;28;45516;-75
2022/05/10 03:24:34;;;;;;;;;24.00;23.75;;;;;19.54;100.00;101627.84;4958019;28;46553;-76
2022/05/10 03:27:00;;;;;;;;;31.00;26.00;;;;;19.58;100.00;101616.19;4957890;28;45355;-76
2022/05/10 03:29:26;;;;;;;;;30.25;26.00;;;;;19.54;100.00;101614.44;4957281;28;45300;-76
2022/05/10 03:31:52;;;;;;;;;26.75;24.25;;;;;19.54;100.00;101610.88;4958130;28;45298;-75
2022/05/10 03:37:03;;;;;;;;;26.75;25.50;;;;;19.50;100.00;101612.75;4956871;28;45325;-75
2022/05/10 03:39:28;;;;;;;;;28.00;24.75;;;;;19.48;100.00;101606.50;4958562;28;45207;-75
2022/05/10 03:41:54;;;;;;;;;29.00;28.25;;;;;19.49;100.00;101610.06;4958371;28;45228;-76
2022/05/10 03:44:19;;;;;;;;;33.50;29.75;;;;;19.50;100.00;101612.75;4957692;28;45708;-74
2022/05/10 03:46:45;;;;;;;;;32.25;29.75;;;;;19.46;100.00;101602.09;4957458;28;53096;-75
2022/05/10 03:49:11;;;;;;;;;35.75;30.25;;;;;19.49;100.00;101602.03;4957349;28;55205;-75
2022/05/10 03:51:36;;;;;;;;;34.25;31.25;;;;;19.49;100.00;101602.03;4957761;28;45277;-74
2022/05/10 03:54:02;;;;;;;;;36.25;32.25;;;;;19.49;100.00;101602.03;4957169;28;51018;-75
2022/05/10 03:56:27;;;;;;;;;37.75;32.50;;;;;19.47;100.00;101602.06;4957964;28;45305;-75
2022/05/10 03:58:53;;;;;;;;;37.00;30.50;;;;;19.49;100.00;101604.69;4960967;28;45563;-75
2022/05/10 04:01:19;;;;;;;;;30.50;24.75;;;;;19.47;100.00;101603.84;4960839;28;45470;-76
2022/05/10 04:03:44;;;;;;;;;35.50;30.00;;;;;19.50;100.00;101599.34;4960889;28;47811;-75
2022/05/10 04:06:10;;;;;;;;;40.25;32.50;;;;;19.51;100.00;101601.13;4960981;28;45335;-74
2022/05/10 04:08:36;;;;;;;;;35.75;31.75;;;;;19.52;100.00;101607.34;4960411;28;45422;-76
2022/05/10 04:11:03;;;;;;;;;35.75;29.75;;;;;19.52;100.00;101604.69;4961046;28;45301;-75
2022/05/10 04:13:29;;;;;;;;;35.75;31.25;;;;;19.51;100.00;101609.16;4958882;28;46525;-75
2022/05/10 04:15:54;;;;;;;;;32.00;29.50;;;;;19.54;100.00;101608.22;4960736;28;45207;-75
2022/05/10 04:18:20;;;;;;;;;31.75;28.25;;;;;19.48;100.00;101593.09;4960609;28;45399;-74
2022/05/10 04:20:45;;;;;;;;;34.50;30.00;;;;;19.54;100.00;101598.38;4960866;28;45538;-75
2022/05/10 04:23:10;;;;;;;;;35.50;29.25;;;;;19.56;100.00;101593.03;4960421;28;45582;-75
2022/05/10 04:25:36;;;;;;;;;34.00;30.25;;;;;19.56;100.00;101601.94;4960061;28;57578;-74
2022/05/10 04:28:04;;;;;;;;;32.75;28.50;;;;;19.53;100.00;101588.56;4960756;28;45439;-75
2022/05/10 04:30:30;;;;;;;;;32.50;28.00;;;;;19.56;100.00;101596.59;4959560;28;45278;-74
2022/05/10 04:32:55;;;;;;;;;36.00;30.25;;;;;19.59;100.00;101590.31;4959154;28;45970;-75
2022/05/10 04:35:20;;;;;;;;;36.75;27.50;;;;;19.61;100.00;101599.22;4960294;28;45331;-74
2022/05/10 04:37:46;;;;;;;;;30.50;27.75;;;;;19.61;100.00;101588.53;4960573;28;45443;-78
2022/05/10 04:42:56;;;;;;;;;31.75;29.50;;;;;19.63;100.00;101592.06;4958908;28;45773;-75
2022/05/10 04:45:21;;;;;;;;;29.75;29.00;;;;;19.67;100.00;101591.09;4959484;28;59437;-77
2022/05/10 04:47:47;;;;;;;;;29.50;28.75;;;;;19.69;100.00;101594.63;4960909;28;45505;-77
2022/05/10 04:50:12;;;;;;;;;34.25;31.50;;;;;19.71;100.00;101597.28;4961271;28;45381;-75
2022/05/10 04:52:38;;;;;;;;;27.25;26.00;;;;;19.71;100.00;101592.84;4960961;28;47396;-74
2022/05/10 04:55:05;;;;;;;;;29.25;27.25;;;;;19.74;100.00;101603.50;4969162;22;45591;-76
2022/05/10 04:57:31;;;;;;;;;29.75;27.75;;;;;19.76;100.00;101598.09;4958738;28;45223;-76
2022/05/10 04:59:56;;;;;;;;;31.25;29.50;;;;;19.77;100.00;101595.44;4958275;28;51277;-77
2022/05/10 05:02:21;;;;;;;;;37.50;31.25;;;;;19.80;100.00;101598.03;4959009;28;56663;-75
2022/05/10 05:04:47;;;;;;;;;30.75;26.50;;;;;19.80;100.00;101592.69;4974128;28;58791;-76
2022/05/10 05:07:12;;;;;;;;;30.50;26.50;;;;;19.85;100.00;101598.84;4959405;28;45785;-76
2022/05/10 05:09:38;;;;;;;;;28.75;25.50;;;;;19.88;100.00;101598.81;4959199;28;45274;-76
2022/05/10 05:12:04;;;;;;;;;28.75;26.25;;;;;19.88;100.00;101593.47;4958200;28;59958;-76
2022/05/10 05:14:29;;;;;;;;;20.00;20.00;;;;;19.87;100.00;101580.09;4957515;28;45519;-76
2022/05/10 05:16:55;;;;;;;;;25.00;20.67;;;;;19.92;100.00;101588.94;4956152;28;45525;-75
2022/05/10 05:19:20;;;;;;;;;20.33;19.33;;;;;20.01;100.00;101588.78;4955333;28;45744;-74
2022/05/10 05:21:46;;;;;;;;;18.00;16.00;;;;;20.08;100.00;101594.94;4955965;28;45493;-71
2022/05/10 05:24:12;;;;;;;;;17.33;15.67;;;;;20.09;100.00;101594.03;4949436;28;57210;-72
2022/05/10 05:29:14;;;;;;;;;14.00;13.33;;;;;20.19;100.00;101598.34;4937383;28;46333;-73
2022/05/10 05:31:40;;;;;;;;;16.00;15.00;;;;;20.21;100.00;101595.63;4937376;28;46597;-72
2022/05/10 05:34:06;;;;;;;;;13.67;13.67;;;;;20.27;100.00;101593.72;4936518;28;45299;-71
2022/05/10 05:36:31;;;;;;;;;13.00;13.00;;;;;20.33;100.00;101596.28;4936649;28;52037;-73
2022/05/10 05:38:57;;;;;;;;;16.00;13.67;;;;;20.37;100.00;101591.78;4933131;28;53493;-72
2022/05/10 05:41:22;;;;;;;;;10.67;9.33;;;;;20.46;100.00;101598.78;4933446;28;62075;-72
2022/05/10 05:43:47;;;;;;;;;14.33;14.33;;;;;20.55;100.00;101590.59;4935033;28;45628;-72
2022/05/10 05:46:13;;;;;;;;;16.00;14.67;;;;;20.59;100.00;101585.13;4936159;28;47381;-72
2022/05/10 05:48:39;;;;;;;;;16.33;14.33;;;;;20.64;98.37;101594.00;4938245;28;45576;-71
2022/05/10 05:51:05;;;;;;;;;15.00;12.67;;;;;20.73;98.52;101595.63;4937597;28;46624;-73
2022/05/10 05:53:30;;;;;;;;;12.67;12.67;;;;;20.78;99.73;101598.22;4937981;28;45457;-71
2022/05/10 05:56:10;;;;;;;;;13.67;12.33;;;;;20.81;96.58;101593.66;4938623;28;45422;-73
2022/05/10 05:58:37;;;;;;;;;13.00;13.00;;;;;20.89;97.28;101602.47;4938048;28;45319;-72
2022/05/10 06:01:10;;;;;;;;;14.67;13.00;;;;;20.90;96.25;101593.50;4935571;28;46585;-72
2022/05/10 06:03:35;;;;;;;;;20.67;17.00;;;;;20.99;96.62;101588.88;4936094;28;45612;-72
2022/05/10 06:06:00;;;;;;;;;14.67;14.00;;;;;21.03;97.41;101593.25;4936443;28;45916;-72
2022/05/10 06:08:26;;;;;;;;;11.33;11.33;;;;;21.09;95.86;101594.03;4937151;28;50262;-72
2022/05/10 06:10:52;;;;;;;;;13.33;13.33;;;;;21.13;94.42;101590.34;4937762;28;46468;-73
2022/05/10 06:13:22;;;;;;;;;15.00;13.00;;;;;21.21;93.81;101600.94;4937362;28;45611;-72
2022/05/10 06:15:49;;;;;;;;;13.00;13.00;;;;;21.25;94.61;101605.31;4932943;28;45618;-72
2022/05/10 06:18:15;;;;;;;;;14.67;12.67;;;;;21.30;94.97;101600.75;4935213;28;45560;-72
2022/05/10 06:20:41;;;;;;;;;16.67;13.00;;;;;21.32;94.61;101593.56;4934358;28;46465;-71
2022/05/10 06:23:06;;;;;;;;;13.33;13.33;;;;;21.39;93.48;101595.19;4933809;28;45505;-70
2022/05/10 06:25:32;;;;;;;;;16.67;14.33;;;;;21.41;93.93;101587.09;4939220;28;45557;-69
2022/05/10 06:27:58;;;;;;;;;16.00;13.33;;;;;21.47;91.69;101583.41;4936764;28;45753;-69
2022/05/10 06:43:44;;;;;;;;;17.33;13.67;;;;;21.80;92.53;101581.75;4936819;28;45709;-71
2022/05/10 06:46:11;;;;;;;;;17.67;16.33;;;;;21.83;91.99;101587.94;4936341;28;45445;-71
2022/05/10 06:48:37;;;;;;;;;14.67;13.33;;;;;21.92;92.51;101584.16;4936817;28;45377;-70
2022/05/10 06:51:07;;;;;;;;;13.33;13.33;;;;;21.94;91.81;101582.28;4936783;28;45553;-70
2022/05/10 06:53:33;;;;;;;;;17.00;15.00;;;;;21.97;90.94;101579.53;4935809;28;47441;-70
2022/05/10 06:55:58;;;;;;;;;16.00;14.33;;;;;22.06;91.39;101589.22;4935560;28;46079;-71
2022/05/10 06:58:24;;;;;;;;;13.67;13.33;;;;;22.10;90.97;101588.19;4936562;28;45558;-71
2022/05/10 07:00:49;;;;;;;;;15.00;13.67;;;;;22.14;90.16;101581.84;4936015;28;57120;-70
2022/05/10 07:03:16;;;;;;;;;14.00;13.33;;;;;22.18;90.55;101580.84;4937687;28;46403;-71
2022/05/10 07:05:43;;;;;;;;;17.33;14.67;;;;;22.23;90.64;101579.81;4937357;28;47002;-70
2022/05/10 07:08:09;;;;;;;;;13.33;13.33;;;;;22.26;90.06;101584.22;4936885;28;45520;-71
2022/05/10 07:10:34;;;;;;;;;17.00;15.33;;;;;22.33;90.17;101590.34;4942612;28;45486;-70
2022/05/10 07:13:00;;;;;;;;;15.33;14.00;;;;;22.36;90.44;101579.50;4937207;28;64089;-70
2022/05/10 07:15:25;;;;;;;;;16.00;15.33;;;;;22.40;90.19;101581.19;4938035;28;53283;-70
2022/05/10 07:17:52;;;;;;;;;15.33;12.67;;;;;22.43;90.07;101578.44;4938566;28;45370;-71
2022/05/10 07:20:18;;;;;;;;;16.67;13.00;;;;;22.47;89.79;101575.59;4937857;28;45167;-70
2022/05/10 07:22:44;;;;;;;;;15.00;14.67;;;;;22.51;89.83;101580.91;4937699;28;46303;-70
2022/05/10 07:25:12;;;;;;;;;15.33;14.67;;;;;22.52;89.20;101571.91;4938229;28;45339;-71
2022/05/10 07:27:39;;;;;;;;;18.00;14.67;;;;;22.53;89.01;101569.19;4932953;28;45493;-71
2022/05/10 07:30:05;;;;;;;;;15.00;14.67;;;;;22.55;88.85;101575.41;4942588;28;45300;-72
2022/05/10 07:32:30;;;;;;;;;13.00;13.00;;;;;22.53;88.42;101571.88;4941180;28;46672;-72
2022/05/10 07:34:55;;;;;;;;;11.33;11.33;;;;;22.50;88.53;101577.34;4940836;28;45400;-71
2022/05/10 07:37:21;;;;;;;;;14.00;13.67;;;;;22.45;88.60;101572.06;4940756;28;45704;-71
2022/05/10 07:39:46;;;;;;;;;16.33;12.00;;;;;22.40;89.02;101575.81;4938686;28;48265;-72
2022/05/10 07:42:11;;;;;;;;;12.67;12.00;;;;;22.35;88.40;101575.91;4940228;28;61257;-71
2022/05/10 07:44:37;;;;;;;;;14.00;14.00;;;;;22.31;89.00;101578.72;4941049;28;59438;-70
2022/05/10 07:47:03;;;;;;;;;16.00;16.00;;;;;22.27;89.27;101583.31;4940512;28;56535;-71
2022/05/10 07:49:28;;;;;;;;;14.00;14.00;;;;;22.24;89.44;101583.38;4941017;28;46909;-72
2022/05/10 07:51:54;;;;;;;;;13.33;13.33;;;;;22.24;89.50;101572.63;4941228;28;46196;-71
2022/05/10 07:54:19;;;;;;;;;14.00;12.67;;;;;22.33;89.64;101577.78;4941047;28;48466;-70
2022/05/10 07:56:45;;;;;;;;;14.00;12.00;;;;;22.38;90.46;101566.91;4941085;28;49257;-71
2022/05/10 07:59:10;;;;;;;;;18.00;15.67;;;;;22.54;89.48;101580.84;4946625;28;46918;-72
2022/05/10 08:01:36;;;;;;;;;16.00;14.00;;;;;22.61;89.87;101571.66;4940386;28;45460;-71
2022/05/10 08:04:02;;;;;;;;;14.67;13.00;;;;;22.69;90.00;101583.09;4940959;28;45233;-72
2022/05/10 08:06:28;;;;;;;;;17.00;16.33;;;;;22.73;89.98;101582.97;4940796;28;45403;-72
2022/05/10 08:08:53;;;;;;;;;19.33;16.33;;;;;22.79;89.36;101587.28;4940906;28;45564;-71
2022/05/10 08:11:20;;;;;;;;;15.33;14.00;;;;;22.84;89.17;101595.25;4940406;28;56750;-71
2022/05/10 08:13:45;;;;;;;;;14.67;14.00;;;;;22.89;88.39;101586.16;4940684;28;45365;-70
2022/05/10 08:16:11;;;;;;;;;16.33;13.33;;;;;22.90;89.01;101587.91;4940541;28;52173;-70
2022/05/10 08:18:39;;;;;;;;;19.67;14.33;;;;;22.92;88.54;101586.06;4940956;28;45438;-70
2022/05/10 08:21:05;;;;;;;;;18.33;14.67;;;;;22.93;88.55;101592.34;4939864;28;46415;-71
2022/05/10 08:23:33;;;;;;;;;13.00;13.00;;;;;22.89;88.72;101577.19;4954802;28;45404;-70
2022/05/10 08:25:59;;;;;;;;;14.00;13.00;;;;;22.89;88.68;101579.88;4929273;28;45441;-71
2022/05/10 08:28:27;;;;;;;;;14.33;13.00;;;;;22.97;89.03;101591.34;4929012;28;45510;-70
2022/05/10 08:30:52;;;;;;;;;23.00;17.33;;;;;23.05;89.05;101583.91;4941034;28;45612;-71
2022/05/10 08:33:20;;;;;;;;;15.33;13.00;;;;;23.06;87.70;101577.59;4940574;28;45441;-70
2022/05/10 08:35:47;;;;;;;;;13.33;11.00;;;;;23.12;86.82;101587.31;4941062;28;45152;-72
2022/05/10 08:38:12;;;;;;;;;16.00;12.67;;;;;23.11;86.85;101580.16;4937714;28;45369;-71
2022/05/10 08:41:16;;;;;;;;;14.33;11.00;;;;;23.16;87.13;101588.97;4940545;28;48061;-71
2022/05/10 08:43:46;;;;;;;;;14.00;13.00;;;;;23.20;87.21;101579.88;4939868;28;45307;-72
2022/05/10 08:46:16;;;;;;;;;15.00;13.00;;;;;23.26;84.71;101582.41;4940510;28;45243;-71
2022/05/10 08:48:42;;;;;;;;;14.67;11.67;;;;;23.35;87.02;101575.88;4941328;28;45380;-71
2022/05/10 08:51:08;;;;;;;;;15.00;12.00;;;;;23.42;85.67;101577.44;4940459;28;47388;-72
2022/05/10 08:53:33;;;;;;;;;12.00;10.00;;;;;23.51;84.08;101577.16;4939469;28;45314;-70
2022/05/10 08:56:12;;;;;;;;;10.00;9.00;;;;;23.61;83.59;101578.63;4940507;28;45282;-70
2022/05/10 08:58:46;;;;;;;;;15.00;12.67;;;;;23.73;83.30;101580.09;4939604;28;45388;-71
2022/05/10 09:01:23;;;;;;;;;13.67;13.67;;;;;23.80;82.99;101570.88;4939166;28;46224;-72
2022/05/10 09:03:54;;;;;;;;;11.67;11.00;;;;;23.92;80.64;101570.50;4929084;28;45508;-70
2022/05/10 09:06:28;;;;;;;;;12.67;12.00;;;;;24.02;80.96;101574.66;4940685;28;45248;-70
2022/05/10 09:09:02;;;;;;;;;14.33;14.33;;;;;24.18;81.94;101563.31;4940572;28;45422;-72
2022/05/10 09:11:35;;;;;;;;;10.67;10.67;;;;;24.31;80.92;101570.06;4940449;28;45751;-70
2022/05/10 09:14:01;;;;;;;;;9.67;9.67;;;;;24.44;77.67;101565.16;4939132;28;45277;-70
2022/05/10 09:16:26;;;;;;;;;11.33;10.67;;;;;24.58;78.97;101567.38;4940071;28;55458;-70
2022/05/10 09:18:53;;;;;;;;;9.00;9.00;;;;;24.68;77.02;101564.31;4939647;28;56548;-71
2022/05/10 09:21:18;;;;;;;;;12.00;12.00;;;;;24.76;73.91;101570.28;4940151;28;46460;-72
2022/05/10 09:23:59;;;;;;;;;10.00;10.00;;;;;24.82;73.28;101561.06;4940361;28;45342;-72
2022/05/10 09:26:42;;;;;;;;;12.33;11.33;;;;;24.91;74.42;101558.03;4956384;28;45546;-70
2022/05/10 09:29:46;;;;;;;;;13.00;13.00;;;;;25.02;73.65;101557.66;4939987;28;45506;-70
2022/05/10 09:35:24;;;;;;;;;11.33;10.00;;;;;25.01;73.92;101555.88;4899556;29;45455;-72
2022/05/10 09:38:06;;;;;;;;;11.33;10.33;;;;;24.94;73.86;101540.84;4931325;28;45347;-72
2022/05/10 09:40:42;;;;;;;;;13.00;13.00;;;;;24.88;75.09;101539.28;4940345;28;45221;-70
2022/05/10 09:43:26;;;;;;;;;10.67;10.67;;;;;24.91;74.83;101554.47;4940472;28;46545;-70
2022/05/10 09:46:07;;;;;;;;;11.33;11.33;;;;;24.91;75.17;101552.63;4940236;28;45197;-70
2022/05/10 09:48:33;;;;;;;;;12.00;11.00;;;;;24.88;75.09;101539.28;4956228;28;45461;-70
2022/05/10 09:50:59;;;;;;;;;12.33;10.00;;;;;24.85;75.44;101544.78;4940060;28;45198;-70
2022/05/10 09:53:28;;;;;;;;;10.33;9.67;;;;;24.77;72.59;101545.06;4939687;28;45303;-71
2022/05/10 09:56:12;;;;;;;;;7.33;7.33;;;;;24.71;70.03;101542.56;4939926;28;45449;-69
2022/05/10 09:58:42;;;;;;;;;13.33;10.00;;;;;24.76;71.38;101540.56;4939969;28;45391;-71
2022/05/10 10:01:11;;;;;;;;;10.00;9.00;;;;;24.82;71.21;101537.69;4939787;28;45382;-71
2022/05/10 10:03:39;;;;;;;;;12.00;11.00;;;;;24.89;72.28;101541.03;4939440;28;47572;-71
2022/05/10 10:06:14;;;;;;;;;11.00;9.67;;;;;24.92;71.99;101535.50;4925764;28;45352;-71
2022/05/10 10:08:44;;;;;;;;;11.00;9.33;;;;;24.88;72.32;101522.19;4935166;28;45519;-71
2022/05/10 10:11:21;;;;;;;;;10.33;10.33;;;;;24.84;72.97;101524.09;4921020;28;45265;-70
2022/05/10 10:13:54;;;;;;;;;10.33;10.00;;;;;24.80;72.15;101528.72;4939246;28;45349;-71
2022/05/10 10:16:33;;;;;;;;;12.67;11.00;;;;;24.76;71.98;101527.06;4939498;28;45237;-71
2022/05/10 10:19:08;;;;;;;;;9.67;9.67;;;;;24.77;70.61;101530.69;4937869;28;45365;-72
2022/05/10 10:21:44;;;;;;;;;13.00;9.00;;;;;24.79;70.47;101521.56;4921099;28;45374;-69
2022/05/10 10:24:14;;;;;;;;;10.00;10.00;;;;;24.80;70.13;101525.16;4938430;28;47261;-72
2022/05/10 10:26:46;;;;;;;;;13.33;13.33;;;;;24.80;69.70;101530.56;4933118;28;45482;-71
2022/05/10 10:29:14;;;;;;;;;11.67;10.00;;;;;24.81;70.96;101532.31;4915949;28;45418;-71
2022/05/10 10:31:44;;;;;;;;;12.67;12.00;;;;;24.81;70.12;101538.59;4912457;28;45197;-72
2022/05/10 10:34:33;;;;;;;;;11.67;10.00;;;;;24.85;72.46;101533.97;4915833;28;46725;-72
2022/05/10 10:37:09;;;;;;;;;7.00;7.00;;;;;24.83;70.16;101527.75;4918802;28;45454;-71
2022/05/10 10:39:43;;;;;;;;;7.33;7.33;;;;;24.88;68.06;101523.06;4931591;28;45426;-70
2022/05/10 10:42:21;;;;;;;;;9.67;9.67;;;;;24.98;67.89;101535.28;4916672;28;45465;-72
2022/05/10 10:44:55;;;;;;;;;12.33;8.33;;;;;25.04;67.93;101531.47;4918399;28;45304;-72
2022/05/10 10:47:51;;;;;;;;;9.33;9.00;;;;;25.06;67.58;101530.50;4918435;28;45365;-72
2022/05/10 10:50:23;;;;;;;;;13.67;11.00;;;;;25.11;69.17;101530.31;4932649;28;45445;-74
2022/05/10 10:52:48;;;;;;;;;12.00;10.00;;;;;25.14;69.86;101532.00;4905118;28;45510;-72
2022/05/10 10:55:18;;;;;;;;;10.00;10.00;;;;;25.20;70.57;101515.56;4915924;28;45586;-73
2022/05/10 10:57:56;;;;;;;;;12.00;9.00;;;;;25.25;69.88;101527.97;4930099;28;45478;-72
2022/05/10 11:00:42;;;;;;;;;9.33;8.33;;;;;25.31;67.82;101524.16;4934133;28;45353;-72
2022/05/10 11:03:14;;;;;;;;;10.00;10.00;;;;;25.37;69.77;101518.50;4918521;28;45507;-73
2022/05/10 11:06:00;;;;;;;;;12.33;12.00;;;;;25.39;69.63;101508.47;4917881;28;46650;-75
2022/05/10 11:08:48;;;;;;;;;6.33;6.33;;;;;25.46;68.51;101493.78;4919465;28;45370;-72
2022/05/10 11:11:45;;;;;;;;;10.33;10.33;;;;;25.58;68.26;101496.00;4914219;28;45208;-74
2022/05/10 11:14:13;;;;;;;;;10.67;9.00;;;;;25.73;67.60;101480.97;4909663;28;45541;-72
2022/05/10 11:16:50;;;;;;;;;9.00;9.00;;;;;25.88;68.32;101487.56;4918844;28;46483;-70
2022/05/10 11:19:42;;;;;;;;;11.33;9.67;;;;;26.03;65.94;101489.63;4919128;28;45358;-71
2022/05/10 11:22:30;;;;;;;;;13.00;11.33;;;;;26.22;63.49;101489.72;4918374;28;45511;-72
2022/05/10 11:25:14;;;;;;;;;10.33;9.33;;;;;26.42;62.24;101480.75;4932726;28;45350;-71
2022/05/10 11:28:11;;;;;;;;;10.00;10.00;;;;;26.63;63.45;101485.19;4920657;28;47147;-72
2022/05/10 11:30:50;;;;;;;;;10.00;10.00;;;;;26.80;62.81;101484.41;4878865;28;45497;-74
2022/05/10 11:33:31;;;;;;;;;8.00;8.00;;;;;26.92;62.23;101485.66;4932219;28;45459;-74
2022/05/10 11:36:07;;;;;;;;;9.67;9.67;;;;;26.90;61.74;101490.28;4939256;28;45441;-73
2022/05/10 11:39:10;;;;;;;;;13.00;11.33;;;;;26.82;58.62;101484.34;4936762;28;48608;-72
2022/05/10 11:41:42;;;;;;;;;10.00;10.00;;;;;26.86;59.34;101481.41;4938214;28;45468;-71
2022/05/10 11:44:29;;;;;;;;;12.67;11.67;;;;;26.96;60.54;101479.16;4938221;28;45485;-71
2022/05/10 11:47:01;;;;;;;;;11.00;11.00;;;;;27.05;60.47;101459.72;4938355;28;45283;-72
2022/05/10 11:49:39;;;;;;;;;8.33;8.33;;;;;27.12;60.77;101465.78;4930905;28;45734;-72
2022/05/10 11:52:38;;;;;;;;;10.00;9.67;;;;;27.18;60.91;101454.66;4936254;28;45477;-72